Time,TemperatureF,DewpointF,PressureIn,WindDirection,WindDirectionDegrees,WindSpeedMPH,WindSpeedGustMPH,Humidity,HourlyPrecipIn,Conditions,Clouds,dailyrainin,SoftwareType,DateUTC
2013-08-24 00:00:00,63.3,27.9,31.01,SSW,205,0.0,0.0,26,0.00,,---,0.00,VWS V14.01,2013-08-24 04:00:00,
2013-08-24 00:01:00,63.3,27.9,31.01,SSW,205,0.0,0.0,26,0.00,,---,0.00,VWS V14.01,2013-08-24 04:01:00,
2013-08-24 00:02:00,63.3,27.9,31.01,SSW,205,0.0,0.0,26,0.00,,---,0.00,VWS V14.01,2013-08-24 04:02:00,
2013-08-24 00:03:00,63.3,27.9,31.01,SSW,205,0.0,0.0,26,0.00,,---,0.00,VWS V14.01,2013-08-24 04:03:00,
2013-08-24 00:05:00,63.3,27.9,31.01,SSW,205,0.0,0.0,26,0.00,,---,0.00,VWS V14.01,2013-08-24 04:05:00,
2013-08-24 00:09:00,63.3,27.9,31.01,SSW,205,0.0,0.0,26,0.00,,---,0.00,VWS V14.01,2013-08-24 04:09:00,
2013-08-24 00:15:00,63.1,27.7,31.01,SSW,205,0.0,0.0,26,0.00,,---,0.00,VWS V14.01,2013-08-24 04:15:00,
2013-08-24 00:21:00,63.0,27.6,31.01,SSW,204,0.0,0.0,26,0.00,,---,0.00,VWS V14.01,2013-08-24 04:21:00,
2013-08-24 00:26:00,63.0,27.6,31.01,SSW,205,0.0,0.0,26,0.00,,---,0.00,VWS V14.01,2013-08-24 04:26:00,
2013-08-24 00:31:00,63.0,27.6,31.01,SSW,205,0.0,0.0,26,0.00,,---,0.00,VWS V14.01,2013-08-24 04:31:00,
2013-08-24 00:36:00,63.0,27.6,31.01,SSW,205,0.0,0.0,26,0.00,,---,0.00,VWS V14.01,2013-08-24 04:36:00,
2013-08-24 00:41:00,62.8,27.4,31.01,SSW,205,0.0,0.0,26,0.00,,---,0.00,VWS V14.01,2013-08-24 04:41:00,
2013-08-24 00:46:00,62.8,27.4,31.01,SSW,205,0.0,0.0,26,0.00,,---,0.00,VWS V14.01,2013-08-24 04:46:00,
2013-08-24 00:51:00,63.0,27.6,31.01,SSW,205,0.0,0.0,26,0.00,,---,0.00,VWS V14.01,2013-08-24 04:51:00,
2013-08-24 00:57:00,63.1,28.6,31.01,WSW,238,2.7,3.6,27,0.00,,---,0.00,VWS V14.01,2013-08-24 04:57:00,
2013-08-24 01:03:00,63.5,29.0,31.01,SSW,196,3.1,3.6,27,0.00,,---,0.00,VWS V14.01,2013-08-24 05:03:00,
2013-08-24 01:08:00,63.7,29.1,31.01,SW,217,5.4,7.6,27,0.00,,---,0.00,VWS V14.01,2013-08-24 05:08:00,
2013-08-24 01:13:00,63.9,29.3,31.01,SSW,213,3.1,5.4,27,0.00,,---,0.00,VWS V14.01,2013-08-24 05:13:00,
2013-08-24 01:18:00,63.9,28.3,31.01,SW,225,3.6,5.8,26,0.00,,---,0.00,VWS V14.01,2013-08-24 05:18:00,
2013-08-24 01:24:00,64.0,28.5,31.01,South,191,0.0,5.8,26,0.00,,---,0.00,VWS V14.01,2013-08-24 05:24:00,
2013-08-24 01:29:00,64.0,28.5,31.01,SW,219,3.1,3.1,26,0.00,,---,0.00,VWS V14.01,2013-08-24 05:29:00,
2013-08-24 01:35:00,64.0,28.5,31.01,SW,226,5.8,5.8,26,0.00,,---,0.00,VWS V14.01,2013-08-24 05:35:00,
2013-08-24 01:41:00,64.0,28.5,31.01,SW,229,4.9,5.4,26,0.00,,---,0.00,VWS V14.01,2013-08-24 05:41:00,
2013-08-24 01:46:00,64.0,27.5,31.01,South,187,5.8,5.8,25,0.00,,---,0.00,VWS V14.01,2013-08-24 05:46:00,
2013-08-24 01:51:00,64.0,27.5,31.01,SSW,210,3.6,5.8,25,0.00,,---,0.00,VWS V14.01,2013-08-24 05:51:00,
2013-08-24 01:57:00,63.9,27.4,31.01,SW,216,3.1,4.5,25,0.00,,---,0.00,VWS V14.01,2013-08-24 05:57:00,
2013-08-24 02:03:00,63.9,27.4,31.01,SW,234,0.0,3.1,25,0.00,,---,0.00,VWS V14.01,2013-08-24 06:03:00,
2013-08-24 02:08:00,63.9,27.4,31.01,SW,222,0.0,3.6,25,0.00,,---,0.00,VWS V14.01,2013-08-24 06:08:00,
2013-08-24 02:14:00,63.5,27.1,31.01,South,188,0.0,3.1,25,0.00,,---,0.00,VWS V14.01,2013-08-24 06:14:00,
2013-08-24 02:19:00,63.5,27.1,31.01,SW,229,4.0,4.9,25,0.00,,---,0.00,VWS V14.01,2013-08-24 06:19:00,
2013-08-24 02:25:00,63.3,26.9,31.01,SSW,211,0.0,3.1,25,0.00,,---,0.00,VWS V14.01,2013-08-24 06:25:00,
2013-08-24 02:30:00,63.1,26.8,31.01,South,190,0.0,0.0,25,0.00,,---,0.00,VWS V14.01,2013-08-24 06:30:00,
2013-08-24 02:35:00,63.0,26.6,31.01,SSW,200,0.0,0.0,25,0.00,,---,0.00,VWS V14.01,2013-08-24 06:35:00,
2013-08-24 02:40:00,63.0,26.6,31.01,South,179,4.0,4.0,25,0.00,,---,0.00,VWS V14.01,2013-08-24 06:40:00,
2013-08-24 02:45:00,62.8,26.5,31.01,South,187,0.0,3.1,25,0.00,,---,0.00,VWS V14.01,2013-08-24 06:45:00,
2013-08-24 02:51:00,63.0,26.6,31.01,SW,222,0.0,0.0,25,0.00,,---,0.00,VWS V14.01,2013-08-24 06:51:00,
2013-08-24 02:56:00,63.0,26.6,31.01,SSW,204,0.0,5.8,25,0.00,,---,0.00,VWS V14.01,2013-08-24 06:56:00,
2013-08-24 03:02:00,63.0,25.6,31.01,SSW,203,0.0,2.2,24,0.00,,---,0.00,VWS V14.01,2013-08-24 07:02:00,
2013-08-24 03:07:00,63.0,25.6,31.01,SSW,197,4.0,4.0,24,0.00,,---,0.00,VWS V14.01,2013-08-24 07:07:00,
2013-08-24 03:13:00,62.8,25.5,31.01,SSW,202,4.9,5.8,24,0.00,,---,0.00,VWS V14.01,2013-08-24 07:13:00,
2013-08-24 03:18:00,62.8,25.5,31.01,West,261,3.6,3.6,24,0.00,,---,0.00,VWS V14.01,2013-08-24 07:18:00,
2013-08-24 03:24:00,62.6,25.3,31.01,West,273,0.0,4.9,24,0.00,,---,0.00,VWS V14.01,2013-08-24 07:24:00,
2013-08-24 03:30:00,62.6,25.3,31.01,WSW,241,3.1,3.1,24,0.00,,---,0.00,VWS V14.01,2013-08-24 07:30:00,
2013-08-24 03:35:00,62.6,25.3,31.01,SW,233,0.0,2.2,24,0.00,,---,0.00,VWS V14.01,2013-08-24 07:35:00,
2013-08-24 03:41:00,62.4,26.2,31.01,SSW,213,2.7,4.0,25,0.00,,---,0.00,VWS V14.01,2013-08-24 07:41:00,
2013-08-24 03:46:00,62.4,26.2,31.01,West,259,2.7,2.7,25,0.00,,---,0.00,VWS V14.01,2013-08-24 07:46:00,
2013-08-24 03:51:00,62.4,26.2,31.01,SW,225,0.0,0.0,25,0.00,,---,0.00,VWS V14.01,2013-08-24 07:51:00,
2013-08-24 03:56:00,62.4,26.2,31.01,SW,233,3.1,3.6,25,0.00,,---,0.00,VWS V14.01,2013-08-24 07:56:00,
2013-08-24 04:01:00,62.2,26.0,31.01,WSW,249,3.6,5.4,25,0.00,,---,0.00,VWS V14.01,2013-08-24 08:01:00,
2013-08-24 04:07:00,62.2,26.0,31.01,West,268,3.1,3.1,25,0.00,,---,0.00,VWS V14.01,2013-08-24 08:07:00,
2013-08-24 04:13:00,62.1,25.9,31.01,West,262,0.0,0.0,25,0.00,,---,0.00,VWS V14.01,2013-08-24 08:13:00,
2013-08-24 04:19:00,61.9,24.7,31.01,SW,215,0.0,2.2,24,0.00,,---,0.00,VWS V14.01,2013-08-24 08:19:00,
2013-08-24 04:24:00,61.9,24.7,31.01,WSW,241,2.7,2.7,24,0.00,,---,0.00,VWS V14.01,2013-08-24 08:24:00,
2013-08-24 04:29:00,61.9,24.7,31.01,SW,217,0.0,3.6,24,0.00,,---,0.00,VWS V14.01,2013-08-24 08:29:00,
2013-08-24 04:34:00,61.9,24.7,31.01,SW,220,0.0,3.6,24,0.00,,---,0.00,VWS V14.01,2013-08-24 08:34:00,
2013-08-24 04:39:00,61.9,24.7,31.01,South,190,0.0,4.0,24,0.00,,---,0.00,VWS V14.01,2013-08-24 08:39:00,
2013-08-24 04:45:00,62.1,24.9,31.01,West,266,2.7,4.9,24,0.00,,---,0.00,VWS V14.01,2013-08-24 08:45:00,
2013-08-24 04:50:00,62.1,24.9,31.01,SW,219,0.0,4.0,24,0.00,,---,0.00,VWS V14.01,2013-08-24 08:50:00,
2013-08-24 04:55:00,62.1,24.9,31.01,WNW,295,5.8,5.8,24,0.00,,---,0.00,VWS V14.01,2013-08-24 08:55:00,
2013-08-24 05:01:00,62.2,19.5,31.01,WSW,257,2.7,3.1,19,0.00,,---,0.00,VWS V14.01,2013-08-24 09:01:00,
2013-08-24 05:06:00,62.2,15.5,31.01,West,273,3.6,3.6,16,0.00,,---,0.00,VWS V14.01,2013-08-24 09:06:00,
2013-08-24 05:11:00,62.2,12.5,31.01,SW,230,0.0,0.0,14,0.00,,---,0.00,VWS V14.01,2013-08-24 09:11:00,
2013-08-24 05:16:00,62.2,12.5,31.01,SW,227,0.0,2.7,14,0.00,,---,0.00,VWS V14.01,2013-08-24 09:16:00,
2013-08-24 05:22:00,62.2,12.5,31.01,SW,222,0.0,2.2,14,0.00,,---,0.00,VWS V14.01,2013-08-24 09:22:00,
2013-08-24 05:27:00,62.1,12.3,31.01,SSW,213,2.2,4.0,14,0.00,,---,0.00,VWS V14.01,2013-08-24 09:27:00,
2013-08-24 05:32:00,62.1,12.3,31.01,WSW,255,0.0,4.0,14,0.00,,---,0.00,VWS V14.01,2013-08-24 09:32:00,
2013-08-24 05:37:00,62.1,7.0,31.01,West,271,0.0,3.6,11,0.00,,---,0.00,VWS V14.01,2013-08-24 09:37:00,
2013-08-24 05:43:00,62.1,7.0,31.01,WSW,249,4.0,4.0,11,0.00,,---,0.00,VWS V14.01,2013-08-24 09:43:00,
2013-08-24 05:48:00,62.1,7.0,31.01,SSE,149,0.0,0.0,11,0.00,,---,0.00,VWS V14.01,2013-08-24 09:48:00,
2013-08-24 05:53:00,62.1,7.0,31.01,WSW,241,2.7,5.4,11,0.00,,---,0.00,VWS V14.01,2013-08-24 09:53:00,
2013-08-24 05:58:00,62.1,7.0,31.01,WSW,255,2.7,6.3,11,0.00,,---,0.00,VWS V14.01,2013-08-24 09:58:00,
2013-08-24 06:03:00,61.9,6.8,31.01,WSW,238,0.0,5.4,11,0.00,,---,0.00,VWS V14.01,2013-08-24 10:03:00,
2013-08-24 06:08:00,61.9,6.8,31.01,WSW,254,4.9,4.9,11,0.00,,---,0.00,VWS V14.01,2013-08-24 10:08:00,
2013-08-24 06:14:00,61.7,6.7,31.01,WSW,258,3.1,5.4,11,0.00,,---,0.00,VWS V14.01,2013-08-24 10:14:00,
2013-08-24 06:19:00,61.7,6.7,31.01,WSW,240,2.7,4.0,11,0.00,,---,0.00,VWS V14.01,2013-08-24 10:19:00,
2013-08-24 06:24:00,61.7,6.7,31.01,WSW,247,2.2,4.5,11,0.00,,---,0.00,VWS V14.01,2013-08-24 10:24:00,
2013-08-24 06:29:00,61.5,6.5,31.01,SW,234,4.0,4.0,11,0.00,,---,0.00,VWS V14.01,2013-08-24 10:29:00,
2013-08-24 06:34:00,61.5,6.5,31.01,SW,221,4.0,4.0,11,0.00,,---,0.00,VWS V14.01,2013-08-24 10:34:00,
2013-08-24 06:40:00,61.3,6.4,31.01,SSW,212,0.0,3.1,11,0.00,,---,0.00,VWS V14.01,2013-08-24 10:40:00,
2013-08-24 06:45:00,61.3,11.8,31.01,SW,234,0.0,0.0,14,0.00,,---,0.00,VWS V14.01,2013-08-24 10:45:00,
2013-08-24 06:51:00,61.3,11.8,31.01,WSW,254,0.0,3.1,14,0.00,,---,0.00,VWS V14.01,2013-08-24 10:51:00,
2013-08-24 06:57:00,61.3,11.8,31.01,SW,221,0.0,0.0,14,0.00,,---,0.00,VWS V14.01,2013-08-24 10:57:00,
2013-08-24 07:02:00,61.2,11.6,31.01,SW,217,0.0,0.0,14,0.00,,---,0.00,VWS V14.01,2013-08-24 11:02:00,
2013-08-24 07:08:00,61.2,11.6,31.01,SW,214,0.0,0.0,14,0.00,,---,0.00,VWS V14.01,2013-08-24 11:08:00,
2013-08-24 07:13:00,61.2,11.6,31.01,SSW,203,3.1,3.1,14,0.00,,---,0.00,VWS V14.01,2013-08-24 11:13:00,
2013-08-24 07:18:00,61.3,11.8,31.01,SW,228,2.2,3.6,14,0.00,,---,0.00,VWS V14.01,2013-08-24 11:18:00,
2013-08-24 07:24:00,61.5,11.9,31.01,WSW,256,2.7,4.9,14,0.00,,---,0.00,VWS V14.01,2013-08-24 11:24:00,
2013-08-24 07:29:00,61.7,12.1,31.01,West,270,3.1,6.3,14,0.00,,---,0.00,VWS V14.01,2013-08-24 11:29:00,
2013-08-24 07:35:00,62.1,12.3,31.01,West,264,4.0,4.9,14,0.00,,---,0.00,VWS V14.01,2013-08-24 11:35:00,
2013-08-24 07:40:00,62.2,12.5,31.01,SW,223,3.1,5.4,14,0.00,,---,0.00,VWS V14.01,2013-08-24 11:40:00,
2013-08-24 07:46:00,62.6,7.4,31.01,WSW,245,4.0,6.3,11,0.00,,---,0.00,VWS V14.01,2013-08-24 11:46:00,
2013-08-24 07:52:00,63.0,7.7,31.01,WSW,239,2.2,5.8,11,0.00,,---,0.00,VWS V14.01,2013-08-24 11:52:00,
2013-08-24 07:57:00,63.3,7.9,31.01,WSW,242,3.6,6.3,11,0.00,,---,0.00,VWS V14.01,2013-08-24 11:57:00,
2013-08-24 08:03:00,63.5,8.1,31.01,WSW,253,4.9,5.4,11,0.00,,---,0.00,VWS V14.01,2013-08-24 12:03:00,
2013-08-24 08:08:00,63.9,8.4,31.01,WNW,284,3.6,6.3,11,0.00,,---,0.00,VWS V14.01,2013-08-24 12:08:00,
2013-08-24 08:14:00,64.2,8.6,31.01,SW,215,3.6,5.8,11,0.00,,---,0.00,VWS V14.01,2013-08-24 12:14:00,
2013-08-24 08:20:00,64.6,6.8,31.01,WSW,249,4.0,5.8,10,0.00,,---,0.00,VWS V14.01,2013-08-24 12:20:00,
2013-08-24 08:25:00,64.9,7.1,31.01,WNW,294,3.1,6.3,10,0.00,,---,0.00,VWS V14.01,2013-08-24 12:25:00,
2013-08-24 08:31:00,65.1,7.2,31.01,SW,234,3.6,6.3,10,0.00,,---,0.00,VWS V14.01,2013-08-24 12:31:00,
2013-08-24 08:36:00,65.5,7.5,31.01,WNW,295,4.0,6.3,10,0.00,,---,0.00,VWS V14.01,2013-08-24 12:36:00,
2013-08-24 08:42:00,65.7,7.6,31.01,WNW,301,0.0,3.1,10,0.00,,---,0.00,VWS V14.01,2013-08-24 12:42:00,
2013-08-24 08:47:00,65.8,7.8,31.01,WNW,301,5.8,6.3,10,0.00,,---,0.00,VWS V14.01,2013-08-24 12:47:00,
2013-08-24 08:52:00,66.2,8.1,31.01,NW,312,0.0,5.4,10,0.00,,---,0.00,VWS V14.01,2013-08-24 12:52:00,
2013-08-24 08:57:00,66.4,8.2,31.01,WNW,303,4.0,4.9,10,0.00,,---,0.00,VWS V14.01,2013-08-24 12:57:00,
2013-08-24 09:03:00,66.6,8.3,31.01,WNW,283,7.2,8.1,10,0.00,,---,0.00,VWS V14.01,2013-08-24 13:03:00,
2013-08-24 09:08:00,66.9,8.6,31.01,WNW,285,6.3,6.3,10,0.00,,---,0.00,VWS V14.01,2013-08-24 13:08:00,
2013-08-24 09:14:00,67.1,8.7,31.01,West,267,0.0,0.0,10,0.00,,---,0.00,VWS V14.01,2013-08-24 13:14:00,
2013-08-24 09:19:00,67.1,8.7,31.01,West,270,5.8,7.6,10,0.00,,---,0.00,VWS V14.01,2013-08-24 13:19:00,
2013-08-24 09:25:00,67.8,9.3,31.01,WNW,289,4.0,5.4,10,0.00,,---,0.00,VWS V14.01,2013-08-24 13:25:00,
2013-08-24 09:30:00,68.4,9.7,31.01,NW,305,2.7,5.4,10,0.00,,---,0.00,VWS V14.01,2013-08-24 13:30:00,
2013-08-24 09:35:00,68.7,10.0,31.01,NW,323,2.7,4.5,10,0.00,,---,0.00,VWS V14.01,2013-08-24 13:35:00,
2013-08-24 09:40:00,69.4,10.5,31.01,NW,305,3.6,5.8,10,0.00,,---,0.00,VWS V14.01,2013-08-24 13:40:00,
2013-08-24 09:45:00,70.2,8.7,31.01,SW,215,0.0,4.9,9,0.00,,---,0.00,VWS V14.01,2013-08-24 13:45:00,
2013-08-24 09:50:00,71.1,9.4,31.01,West,265,8.1,8.1,9,0.00,,---,0.00,VWS V14.01,2013-08-24 13:50:00,
2013-08-24 09:56:00,71.6,9.8,31.01,West,264,4.0,4.0,9,0.00,,---,0.00,VWS V14.01,2013-08-24 13:56:00,
2013-08-24 10:02:00,72.3,10.4,31.01,West,265,3.6,5.4,9,0.00,,---,0.00,VWS V14.01,2013-08-24 14:02:00,
2013-08-24 10:08:00,72.5,10.5,31.01,NW,312,6.3,8.1,9,0.00,,---,0.00,VWS V14.01,2013-08-24 14:08:00,
2013-08-24 10:13:00,73.2,11.1,31.01,WNW,284,6.3,6.3,9,0.00,,---,0.00,VWS V14.01,2013-08-24 14:13:00,
2013-08-24 10:18:00,73.4,8.6,31.01,WNW,292,3.1,4.0,8,0.00,,---,0.00,VWS V14.01,2013-08-24 14:18:00,
2013-08-24 10:23:00,73.8,8.8,31.01,WSW,243,4.9,6.3,8,0.00,,---,0.00,VWS V14.01,2013-08-24 14:23:00,
2013-08-24 10:28:00,74.3,9.2,31.01,WSW,249,3.6,5.8,8,0.00,,---,0.00,VWS V14.01,2013-08-24 14:28:00,
2013-08-24 10:34:00,74.7,9.5,31.01,NW,304,0.0,4.9,8,0.00,,---,0.00,VWS V14.01,2013-08-24 14:34:00,
2013-08-24 10:39:00,75.4,10.0,31.01,SW,236,6.7,8.3,8,0.00,,---,0.00,VWS V14.01,2013-08-24 14:39:00,
2013-08-24 10:44:00,75.9,10.4,31.01,WNW,290,4.0,7.2,8,0.00,,---,0.00,VWS V14.01,2013-08-24 14:44:00,
2013-08-24 10:49:00,76.1,10.6,31.01,WSW,251,5.4,5.8,8,0.00,,---,0.00,VWS V14.01,2013-08-24 14:49:00,
2013-08-24 10:55:00,76.5,10.8,31.01,SW,228,5.8,5.8,8,0.00,,---,0.00,VWS V14.01,2013-08-24 14:55:00,
2013-08-24 11:00:00,76.8,11.1,31.01,West,280,0.0,0.0,8,0.00,,---,0.00,VWS V14.01,2013-08-24 15:00:00,
2013-08-24 11:05:00,77.2,11.4,31.01,West,261,4.0,5.4,8,0.00,,---,0.00,VWS V14.01,2013-08-24 15:05:00,
2013-08-24 11:10:00,77.2,11.4,31.01,WNW,298,4.0,5.4,8,0.00,,---,0.00,VWS V14.01,2013-08-24 15:10:00,
2013-08-24 11:16:00,78.1,12.0,31.01,West,270,5.4,5.4,8,0.00,,---,0.00,VWS V14.01,2013-08-24 15:16:00,
2013-08-24 11:21:00,78.3,12.2,31.01,WSW,248,2.7,3.6,8,0.00,,---,0.00,VWS V14.01,2013-08-24 15:21:00,
2013-08-24 11:27:00,78.6,12.4,31.01,West,271,6.3,6.3,8,0.00,,---,0.00,VWS V14.01,2013-08-24 15:27:00,
2013-08-24 11:32:00,78.1,12.0,31.01,WSW,252,7.6,9.6,8,0.00,,---,0.00,VWS V14.01,2013-08-24 15:32:00,
2013-08-24 11:37:00,78.4,12.3,31.01,WSW,245,7.6,7.6,8,0.00,,---,0.00,VWS V14.01,2013-08-24 15:37:00,
2013-08-24 11:43:00,78.6,12.4,31.01,WNW,288,4.9,8.1,8,0.00,,---,0.00,VWS V14.01,2013-08-24 15:43:00,
2013-08-24 11:48:00,79.2,9.8,31.01,West,274,5.8,5.8,7,0.00,,---,0.00,VWS V14.01,2013-08-24 15:48:00,
2013-08-24 11:54:00,79.0,9.7,31.01,WNW,293,4.9,6.3,7,0.00,,---,0.00,VWS V14.01,2013-08-24 15:54:00,
2013-08-24 11:59:00,79.2,9.8,31.01,NW,312,3.6,5.4,7,0.00,,---,0.00,VWS V14.01,2013-08-24 15:59:00,
2013-08-24 12:05:00,79.7,10.2,31.01,NW,312,5.8,5.8,7,0.00,,---,0.00,VWS V14.01,2013-08-24 16:05:00,
2013-08-24 12:10:00,79.9,10.4,31.01,West,261,4.0,6.3,7,0.00,,---,0.00,VWS V14.01,2013-08-24 16:10:00,
2013-08-24 12:16:00,80.6,10.9,31.01,NW,306,5.4,8.7,7,0.00,,---,0.00,VWS V14.01,2013-08-24 16:16:00,
2013-08-24 12:22:00,80.2,10.6,31.01,NW,315,2.7,6.3,7,0.00,,---,0.00,VWS V14.01,2013-08-24 16:22:00,
2013-08-24 12:27:00,80.6,10.9,31.01,WNW,297,5.8,7.6,7,0.00,,---,0.00,VWS V14.01,2013-08-24 16:27:00,
2013-08-24 12:33:00,81.0,11.2,31.01,WNW,293,2.7,3.6,7,0.00,,---,0.00,VWS V14.01,2013-08-24 16:33:00,
2013-08-24 12:39:00,80.8,11.0,31.01,WSW,239,4.9,7.6,7,0.00,,---,0.00,VWS V14.01,2013-08-24 16:39:00,
2013-08-24 12:44:00,81.3,11.4,31.01,NNE,31,3.1,3.6,7,0.00,,---,0.00,VWS V14.01,2013-08-24 16:44:00,
2013-08-24 12:49:00,82.2,12.1,31.01,SW,219,5.4,5.4,7,0.00,,---,0.00,VWS V14.01,2013-08-24 16:49:00,
2013-08-24 12:54:00,81.3,11.4,31.01,West,265,4.0,6.3,7,0.00,,---,0.00,VWS V14.01,2013-08-24 16:54:00,
2013-08-24 12:59:00,81.0,11.2,31.01,SW,232,5.4,8.3,7,0.00,,---,0.00,VWS V14.01,2013-08-24 16:59:00,
2013-08-24 13:05:00,81.7,11.7,31.01,North,353,3.1,3.6,7,0.00,,---,0.00,VWS V14.01,2013-08-24 17:05:00,
2013-08-24 13:10:00,82.6,8.9,31.01,WSW,257,8.3,8.3,6,0.00,,---,0.00,VWS V14.01,2013-08-24 17:10:00,
2013-08-24 13:15:00,81.9,11.8,31.01,NNE,19,4.9,5.8,7,0.00,,---,0.00,VWS V14.01,2013-08-24 17:15:00,
2013-08-24 13:20:00,82.0,11.9,31.01,WSW,250,5.4,7.6,7,0.00,,---,0.00,VWS V14.01,2013-08-24 17:20:00,
2013-08-24 13:26:00,81.7,11.7,31.01,WSW,244,3.1,4.9,7,0.00,,---,0.00,VWS V14.01,2013-08-24 17:26:00,
2013-08-24 13:31:00,81.5,11.6,31.01,WSW,253,6.3,6.3,7,0.00,,---,0.00,VWS V14.01,2013-08-24 17:31:00,
2013-08-24 13:37:00,81.1,11.3,31.01,West,269,3.1,4.0,7,0.00,,---,0.00,VWS V14.01,2013-08-24 17:37:00,
2013-08-24 13:43:00,81.1,11.3,31.01,SW,223,0.0,0.0,7,0.00,,---,0.00,VWS V14.01,2013-08-24 17:43:00,
2013-08-24 13:48:00,80.6,10.9,31.01,WNW,301,0.0,0.0,7,0.00,,---,0.00,VWS V14.01,2013-08-24 17:48:00,
2013-08-24 13:54:00,79.9,10.4,31.01,WNW,282,3.1,7.2,7,0.00,,---,0.00,VWS V14.01,2013-08-24 17:54:00,
2013-08-24 14:00:00,79.7,10.2,31.01,WNW,296,4.0,5.4,7,0.00,,---,0.00,VWS V14.01,2013-08-24 18:00:00,
2013-08-24 14:05:00,80.4,10.8,31.01,West,259,2.7,2.7,7,0.00,,---,0.00,VWS V14.01,2013-08-24 18:05:00,
2013-08-24 14:11:00,81.1,11.3,31.01,North,357,2.7,3.6,7,0.00,,---,0.00,VWS V14.01,2013-08-24 18:11:00,
2013-08-24 14:16:00,81.7,11.7,31.01,WSW,244,3.1,6.3,7,0.00,,---,0.00,VWS V14.01,2013-08-24 18:16:00,
2013-08-24 14:22:00,82.4,8.8,31.01,NE,35,3.1,3.6,6,0.00,,---,0.00,VWS V14.01,2013-08-24 18:22:00,
2013-08-24 14:28:00,83.3,9.4,31.01,ENE,65,2.7,5.8,6,0.00,,---,0.00,VWS V14.01,2013-08-24 18:28:00,
2013-08-24 14:33:00,83.7,9.7,31.01,WNW,292,4.0,6.3,6,0.00,,---,0.00,VWS V14.01,2013-08-24 18:33:00,
2013-08-24 14:38:00,83.5,9.5,31.01,ENE,72,0.0,6.3,6,0.00,,---,0.00,VWS V14.01,2013-08-24 18:38:00,
2013-08-24 14:43:00,83.5,9.5,31.01,East,95,2.7,2.7,6,0.00,,---,0.00,VWS V14.01,2013-08-24 18:43:00,
2013-08-24 14:49:00,83.3,9.4,31.01,ENE,63,5.4,6.3,6,0.00,,---,0.00,VWS V14.01,2013-08-24 18:49:00,
2013-08-24 14:54:00,82.9,9.1,31.01,NNE,33,0.0,2.7,6,0.00,,---,0.00,VWS V14.01,2013-08-24 18:54:00,
2013-08-24 14:59:00,81.5,11.6,31.01,West,260,3.1,4.0,7,0.00,,---,0.00,VWS V14.01,2013-08-24 18:59:00,
2013-08-24 15:04:00,80.6,10.9,31.01,WNW,295,3.6,4.0,7,0.00,,---,0.00,VWS V14.01,2013-08-24 19:04:00,
2013-08-24 15:09:00,80.2,10.6,31.01,NE,43,0.0,0.0,7,0.00,,---,0.00,VWS V14.01,2013-08-24 19:09:00,
2013-08-24 15:14:00,81.5,11.6,31.01,West,281,3.1,3.1,7,0.00,,---,0.00,VWS V14.01,2013-08-24 19:14:00,
2013-08-24 15:19:00,82.6,8.9,31.01,WSW,254,0.0,3.1,6,0.00,,---,0.00,VWS V14.01,2013-08-24 19:19:00,
2013-08-24 15:25:00,81.7,11.7,31.01,NW,311,5.4,5.4,7,0.00,,---,0.00,VWS V14.01,2013-08-24 19:25:00,
2013-08-24 15:31:00,80.4,10.8,31.01,NW,304,5.4,6.3,7,0.00,,---,0.00,VWS V14.01,2013-08-24 19:31:00,
2013-08-24 15:36:00,79.5,10.1,31.01,NNW,328,2.2,3.6,7,0.00,,---,0.00,VWS V14.01,2013-08-24 19:36:00,
2013-08-24 15:42:00,79.3,10.0,31.01,NNW,344,0.0,0.0,7,0.00,,---,0.00,VWS V14.01,2013-08-24 19:42:00,
2013-08-24 15:48:00,80.4,10.8,31.01,North,0,4.9,5.4,7,0.00,,---,0.00,VWS V14.01,2013-08-24 19:48:00,
2013-08-24 15:53:00,81.5,11.6,31.01,NE,50,0.0,3.1,7,0.00,,---,0.00,VWS V14.01,2013-08-24 19:53:00,
2013-08-24 15:59:00,81.7,11.7,31.01,WSW,254,0.0,4.9,7,0.00,,---,0.00,VWS V14.01,2013-08-24 19:59:00,
2013-08-24 16:04:00,81.3,11.4,31.01,NNW,331,2.7,5.8,7,0.00,,---,0.00,VWS V14.01,2013-08-24 20:04:00,
2013-08-24 16:10:00,80.4,10.8,31.01,WNW,299,2.7,2.7,7,0.00,,---,0.00,VWS V14.01,2013-08-24 20:10:00,
2013-08-24 16:15:00,79.5,10.1,31.01,NNE,13,3.1,5.8,7,0.00,,---,0.00,VWS V14.01,2013-08-24 20:15:00,
2013-08-24 16:21:00,79.2,9.8,31.01,NNW,344,4.5,4.5,7,0.00,,---,0.00,VWS V14.01,2013-08-24 20:21:00,
2013-08-24 16:27:00,80.6,10.9,31.01,WSW,245,4.9,4.9,7,0.00,,---,0.00,VWS V14.01,2013-08-24 20:27:00,
2013-08-24 16:32:00,81.3,11.4,31.01,ENE,65,3.6,4.0,7,0.00,,---,0.00,VWS V14.01,2013-08-24 20:32:00,
2013-08-24 16:38:00,81.9,11.8,31.01,NE,55,0.0,3.6,7,0.00,,---,0.00,VWS V14.01,2013-08-24 20:38:00,
2013-08-24 16:43:00,82.2,12.1,31.01,NE,36,3.1,6.3,7,0.00,,---,0.00,VWS V14.01,2013-08-24 20:43:00,
2013-08-24 16:49:00,82.6,8.9,31.01,WNW,300,0.0,0.0,6,0.00,,---,0.00,VWS V14.01,2013-08-24 20:49:00,
2013-08-24 16:54:00,82.6,8.9,31.01,ENE,58,4.0,6.7,6,0.00,,---,0.00,VWS V14.01,2013-08-24 20:54:00,
2013-08-24 16:59:00,81.5,11.6,31.01,WNW,296,0.0,4.0,7,0.00,,---,0.00,VWS V14.01,2013-08-24 20:59:00,
2013-08-24 17:05:00,80.1,10.5,31.01,WNW,293,2.7,5.8,7,0.00,,---,0.00,VWS V14.01,2013-08-24 21:05:00,
2013-08-24 17:10:00,79.5,10.1,31.01,West,279,3.1,4.0,7,0.00,,---,0.00,VWS V14.01,2013-08-24 21:10:00,
2013-08-24 17:15:00,79.0,9.7,31.01,NW,325,0.0,3.1,7,0.00,,---,0.00,VWS V14.01,2013-08-24 21:15:00,
2013-08-24 17:20:00,78.6,12.4,31.01,North,0,0.0,0.0,8,0.00,,---,0.00,VWS V14.01,2013-08-24 21:20:00,
2013-08-24 17:26:00,79.3,10.0,31.01,West,259,4.0,5.8,7,0.00,,---,0.00,VWS V14.01,2013-08-24 21:26:00,
2013-08-24 17:31:00,79.9,10.4,31.01,WNW,299,0.0,5.8,7,0.00,,---,0.00,VWS V14.01,2013-08-24 21:31:00,
2013-08-24 17:37:00,80.6,10.9,31.01,West,275,3.6,5.4,7,0.00,,---,0.00,VWS V14.01,2013-08-24 21:37:00,
2013-08-24 17:42:00,81.1,11.3,31.01,NNW,330,0.0,0.0,7,0.00,,---,0.00,VWS V14.01,2013-08-24 21:42:00,
2013-08-24 17:47:00,81.0,11.2,31.01,NW,316,3.1,3.1,7,0.00,,---,0.00,VWS V14.01,2013-08-24 21:47:00,
2013-08-24 17:52:00,80.6,10.9,31.01,NW,313,3.1,4.5,7,0.00,,---,0.00,VWS V14.01,2013-08-24 21:52:00,
2013-08-24 17:58:00,80.2,10.6,31.01,NW,312,2.7,3.6,7,0.00,,---,0.00,VWS V14.01,2013-08-24 21:58:00,
2013-08-24 18:04:00,79.9,10.4,31.01,NW,308,4.0,4.0,7,0.00,,---,0.00,VWS V14.01,2013-08-24 22:04:00,
2013-08-24 18:09:00,79.5,10.1,31.01,ENE,74,2.2,4.0,7,0.00,,---,0.00,VWS V14.01,2013-08-24 22:09:00,
2013-08-24 18:14:00,79.3,10.0,31.01,ESE,105,0.0,0.0,7,0.00,,---,0.00,VWS V14.01,2013-08-24 22:14:00,
2013-08-24 18:20:00,79.2,9.8,31.01,NW,326,2.7,2.7,7,0.00,,---,0.00,VWS V14.01,2013-08-24 22:20:00,
2013-08-24 18:25:00,79.0,9.7,31.01,WNW,298,4.0,5.4,7,0.00,,---,0.00,VWS V14.01,2013-08-24 22:25:00,
2013-08-24 18:31:00,78.6,12.4,31.01,North,11,0.0,5.4,8,0.00,,---,0.00,VWS V14.01,2013-08-24 22:31:00,
2013-08-24 18:37:00,78.4,12.3,31.01,ENE,69,0.0,0.0,8,0.00,,---,0.00,VWS V14.01,2013-08-24 22:37:00,
2013-08-24 18:42:00,78.3,12.2,31.01,West,260,0.0,0.0,8,0.00,,---,0.00,VWS V14.01,2013-08-24 22:42:00,
2013-08-24 18:48:00,78.1,12.0,31.01,NE,45,0.0,0.0,8,0.00,,---,0.00,VWS V14.01,2013-08-24 22:48:00,
2013-08-24 18:53:00,77.9,11.9,30.92,NNW,333,0.0,2.2,8,0.00,,---,0.00,VWS V14.01,2013-08-24 22:53:00,
2013-08-24 18:59:00,77.7,11.8,30.92,NNW,345,0.0,0.0,8,0.00,,---,0.00,VWS V14.01,2013-08-24 22:59:00,
2013-08-24 19:04:00,77.0,11.2,30.92,NW,317,0.0,0.0,8,0.00,,---,0.00,VWS V14.01,2013-08-24 23:04:00,
2013-08-24 19:09:00,76.3,10.7,31.01,NNE,19,0.0,0.0,8,0.00,,---,0.00,VWS V14.01,2013-08-24 23:09:00,
2013-08-24 19:15:00,75.6,10.2,31.01,WNW,284,0.0,0.0,8,0.00,,---,0.00,VWS V14.01,2013-08-24 23:15:00,
2013-08-24 19:20:00,75.0,9.8,31.01,NE,36,0.0,3.6,8,0.00,,---,0.00,VWS V14.01,2013-08-24 23:20:00,
2013-08-24 19:26:00,74.7,9.5,31.01,East,89,0.0,0.0,8,0.00,,---,0.00,VWS V14.01,2013-08-24 23:26:00,
2013-08-24 19:31:00,74.3,9.2,31.01,NNW,327,0.0,0.0,8,0.00,,---,0.00,VWS V14.01,2013-08-24 23:31:00,
2013-08-24 19:36:00,73.9,9.0,31.01,NNW,330,0.0,0.0,8,0.00,,---,0.00,VWS V14.01,2013-08-24 23:36:00,
2013-08-24 19:42:00,73.4,8.6,31.01,North,0,0.0,0.0,8,0.00,,---,0.00,VWS V14.01,2013-08-24 23:42:00,
2013-08-24 19:47:00,73.0,10.9,31.01,North,0,0.0,0.0,9,0.00,,---,0.00,VWS V14.01,2013-08-24 23:47:00,
2013-08-24 19:52:00,72.7,10.6,31.01,North,0,0.0,0.0,9,0.00,,---,0.00,VWS V14.01,2013-08-24 23:52:00,
2013-08-24 19:57:00,72.3,10.4,31.01,North,0,0.0,0.0,9,0.00,,---,0.00,VWS V14.01,2013-08-24 23:57:00,
2013-08-24 20:03:00,72.0,10.1,31.01,North,0,0.0,0.0,9,0.00,,---,0.00,VWS V14.01,2013-08-25 00:03:00,
2013-08-24 20:08:00,71.6,9.8,31.01,North,0,0.0,0.0,9,0.00,,---,0.00,VWS V14.01,2013-08-25 00:08:00,
2013-08-24 20:13:00,71.4,9.7,31.01,North,0,0.0,0.0,9,0.00,,---,0.00,VWS V14.01,2013-08-25 00:13:00,
2013-08-24 20:18:00,71.1,9.4,31.01,North,0,0.0,0.0,9,0.00,,---,0.00,VWS V14.01,2013-08-25 00:18:00,
2013-08-24 20:23:00,70.9,9.3,31.01,North,0,0.0,0.0,9,0.00,,---,0.00,VWS V14.01,2013-08-25 00:23:00,
2013-08-24 20:29:00,70.5,9.0,31.01,North,0,0.0,0.0,9,0.00,,---,0.00,VWS V14.01,2013-08-25 00:29:00,
2013-08-24 20:35:00,70.3,8.9,31.01,North,0,0.0,0.0,9,0.00,,---,0.00,VWS V14.01,2013-08-25 00:35:00,
2013-08-24 20:40:00,70.0,8.6,31.01,North,0,0.0,0.0,9,0.00,,---,0.00,VWS V14.01,2013-08-25 00:40:00,
2013-08-24 20:46:00,69.6,10.7,31.01,North,0,0.0,0.0,10,0.00,,---,0.00,VWS V14.01,2013-08-25 00:46:00,
2013-08-24 20:52:00,69.4,10.5,31.01,North,0,0.0,0.0,10,0.00,,---,0.00,VWS V14.01,2013-08-25 00:52:00,
2013-08-24 20:57:00,69.1,10.3,31.01,North,0,0.0,0.0,10,0.00,,---,0.00,VWS V14.01,2013-08-25 00:57:00,
2013-08-24 21:03:00,69.1,10.3,31.01,NW,325,0.0,0.0,10,0.00,,---,0.00,VWS V14.01,2013-08-25 01:03:00,
2013-08-24 21:08:00,68.9,10.1,31.01,NW,313,0.0,0.0,10,0.00,,---,0.00,VWS V14.01,2013-08-25 01:08:00,
2013-08-24 21:13:00,68.7,10.0,31.01,NW,313,0.0,0.0,10,0.00,,---,0.00,VWS V14.01,2013-08-25 01:13:00,
2013-08-24 21:18:00,68.5,9.8,31.01,NW,313,0.0,0.0,10,0.00,,---,0.00,VWS V14.01,2013-08-25 01:18:00,
2013-08-24 21:23:00,68.2,9.6,31.01,NW,314,0.0,0.0,10,0.00,,---,0.00,VWS V14.01,2013-08-25 01:23:00,
2013-08-24 21:28:00,67.8,9.3,31.01,NW,313,0.0,0.0,10,0.00,,---,0.00,VWS V14.01,2013-08-25 01:28:00,
2013-08-24 21:33:00,67.6,9.1,31.01,NW,313,0.0,0.0,10,0.00,,---,0.00,VWS V14.01,2013-08-25 01:33:00,
2013-08-24 21:39:00,67.5,9.0,31.01,NW,314,0.0,0.0,10,0.00,,---,0.00,VWS V14.01,2013-08-25 01:39:00,
2013-08-24 21:45:00,67.1,8.7,31.01,NW,314,0.0,0.0,10,0.00,,---,0.00,VWS V14.01,2013-08-25 01:45:00,
2013-08-24 21:50:00,67.1,8.7,31.01,WNW,301,0.0,0.0,10,0.00,,---,0.00,VWS V14.01,2013-08-25 01:50:00,
2013-08-24 21:55:00,66.9,8.6,31.01,WNW,301,0.0,0.0,10,0.00,,---,0.00,VWS V14.01,2013-08-25 01:55:00,
2013-08-24 22:00:00,66.6,8.3,31.01,NNE,33,0.0,0.0,10,0.00,,---,0.00,VWS V14.01,2013-08-25 02:00:00,
2013-08-24 22:06:00,66.6,8.3,31.01,NE,36,0.0,0.0,10,0.00,,---,0.00,VWS V14.01,2013-08-25 02:06:00,
2013-08-24 22:11:00,66.4,8.2,31.01,NE,36,0.0,0.0,10,0.00,,---,0.00,VWS V14.01,2013-08-25 02:11:00,
2013-08-24 22:17:00,66.4,8.2,31.01,NE,36,0.0,0.0,10,0.00,,---,0.00,VWS V14.01,2013-08-25 02:17:00,
2013-08-24 22:23:00,66.2,8.1,31.01,NE,36,0.0,0.0,10,0.00,,---,0.00,VWS V14.01,2013-08-25 02:23:00,
2013-08-24 22:28:00,66.0,7.9,31.01,NE,36,0.0,0.0,10,0.00,,---,0.00,VWS V14.01,2013-08-25 02:28:00,
2013-08-24 22:33:00,65.8,7.8,31.01,NE,36,0.0,0.0,10,0.00,,---,0.00,VWS V14.01,2013-08-25 02:33:00,
2013-08-24 22:39:00,65.8,7.8,31.01,NE,36,0.0,0.0,10,0.00,,---,0.00,VWS V14.01,2013-08-25 02:39:00,
2013-08-24 22:44:00,65.7,7.6,31.01,NE,36,0.0,0.0,10,0.00,,---,0.00,VWS V14.01,2013-08-25 02:44:00,
2013-08-24 22:49:00,65.5,7.5,31.01,NE,36,0.0,0.0,10,0.00,,---,0.00,VWS V14.01,2013-08-25 02:49:00,
2013-08-24 22:55:00,65.1,7.2,31.01,NE,36,0.0,0.0,10,0.00,,---,0.00,VWS V14.01,2013-08-25 02:55:00,
2013-08-24 23:00:00,65.1,7.2,31.01,NE,36,0.0,0.0,10,0.00,,---,0.00,VWS V14.01,2013-08-25 03:00:00,
2013-08-24 23:06:00,64.9,7.1,31.01,NE,36,0.0,0.0,10,0.00,,---,0.00,VWS V14.01,2013-08-25 03:06:00,
2013-08-24 23:11:00,64.8,6.9,31.01,NE,36,0.0,0.0,10,0.00,,---,0.00,VWS V14.01,2013-08-25 03:11:00,
2013-08-24 23:17:00,64.8,6.9,31.01,NE,36,0.0,0.0,10,0.00,,---,0.00,VWS V14.01,2013-08-25 03:17:00,
2013-08-24 23:22:00,64.6,6.8,31.01,North,1,0.0,0.0,10,0.00,,---,0.00,VWS V14.01,2013-08-25 03:22:00,
2013-08-24 23:27:00,64.6,6.8,31.01,North,0,0.0,0.0,10,0.00,,---,0.00,VWS V14.01,2013-08-25 03:27:00,
2013-08-24 23:33:00,64.4,6.7,31.01,West,278,0.0,0.0,10,0.00,,---,0.00,VWS V14.01,2013-08-25 03:33:00,
2013-08-24 23:38:00,64.4,6.7,31.01,West,277,0.0,0.0,10,0.00,,---,0.00,VWS V14.01,2013-08-25 03:38:00,
2013-08-24 23:44:00,64.4,6.7,31.01,West,278,0.0,0.0,10,0.00,,---,0.00,VWS V14.01,2013-08-25 03:44:00,
2013-08-24 23:49:00,64.2,8.6,31.01,West,277,0.0,0.0,11,0.00,,---,0.00,VWS V14.01,2013-08-25 03:49:00,
2013-08-24 23:55:00,64.2,8.6,31.01,NW,317,0.0,0.0,11,0.00,,---,0.00,VWS V14.01,2013-08-25 03:55:00,